sensor_id;sensor_type;location;lat;lon;timestamp;pressure;altitude;pressure_sealevel;temperature;humidity
34103;BME280;20381;54.498;18.206;2023-06-10T00:02:22;100056.61;;;14.24;63.03
34103;BME280;20381;54.498;18.206;2023-06-10T00:04:48;100056.71;;;14.23;63.05
34103;BME280;20381;54.498;18.206;2023-06-10T00:07:16;100059.34;;;14.23;63.12
34103;BME280;20381;54.498;18.206;2023-06-10T00:09:42;100067.36;;;14.20;63.25
34103;BME280;20381;54.498;18.206;2023-06-10T00:12:09;100059.30;;;14.16;63.36
34103;BME280;20381;54.498;18.206;2023-06-10T00:14:39;100060.31;;;14.13;63.68
34103;BME280;20381;54.498;18.206;2023-06-10T00:17:09;100060.78;;;14.13;63.54
34103;BME280;20381;54.498;18.206;2023-06-10T00:19:37;100068.84;;;14.09;63.78
34103;BME280;20381;54.498;18.206;2023-06-10T00:22:06;100066.75;;;14.07;63.85
34103;BME280;20381;54.498;18.206;2023-06-10T00:24:35;100070.87;;;14.04;63.74
34103;BME280;20381;54.498;18.206;2023-06-10T00:27:01;100070.20;;;14.01;63.84
34103;BME280;20381;54.498;18.206;2023-06-10T00:29:27;100071.11;;;14.00;63.89
34103;BME280;20381;54.498;18.206;2023-06-10T00:31:53;100070.81;;;13.97;64.05
34103;BME280;20381;54.498;18.206;2023-06-10T00:34:23;100076.81;;;13.92;64.04
34103;BME280;20381;54.498;18.206;2023-06-10T00:36:50;100081.30;;;13.90;64.53
34103;BME280;20381;54.498;18.206;2023-06-10T00:39:19;100079.58;;;13.89;64.47
34103;BME280;20381;54.498;18.206;2023-06-10T00:41:45;100073.59;;;13.87;64.71
34103;BME280;20381;54.498;18.206;2023-06-10T00:44:13;100068.52;;;13.84;64.60
34103;BME280;20381;54.498;18.206;2023-06-10T00:46:40;100069.70;;;13.78;64.63
34103;BME280;20381;54.498;18.206;2023-06-10T00:49:09;100073.51;;;13.73;64.74
34103;BME280;20381;54.498;18.206;2023-06-10T00:51:35;100074.42;;;13.72;64.85
34103;BME280;20381;54.498;18.206;2023-06-10T00:54:05;100075.42;;;13.69;64.83
34103;BME280;20381;54.498;18.206;2023-06-10T00:56:32;100070.66;;;13.69;64.91
34103;BME280;20381;54.498;18.206;2023-06-10T00:59:00;100077.37;;;13.65;65.13
34103;BME280;20381;54.498;18.206;2023-06-10T01:01:28;100079.23;;;13.63;65.05
34103;BME280;20381;54.498;18.206;2023-06-10T01:03:57;100076.78;;;13.60;65.42
34103;BME280;20381;54.498;18.206;2023-06-10T01:06:43;100089.89;;;13.60;65.54
34103;BME280;20381;54.498;18.206;2023-06-10T01:09:18;100088.22;;;13.59;65.70
34103;BME280;20381;54.498;18.206;2023-06-10T01:11:44;100096.08;;;13.59;65.67
34103;BME280;20381;54.498;18.206;2023-06-10T01:14:14;100096.25;;;13.56;66.10
34103;BME280;20381;54.498;18.206;2023-06-10T01:16:44;100097.16;;;13.55;65.86
34103;BME280;20381;54.498;18.206;2023-06-10T01:19:16;100093.56;;;13.49;66.10
34103;BME280;20381;54.498;18.206;2023-06-10T01:21:43;100098.44;;;13.48;66.30
34103;BME280;20381;54.498;18.206;2023-06-10T01:24:12;100095.04;;;13.46;65.97
34103;BME280;20381;54.498;18.206;2023-06-10T01:26:40;100101.77;;;13.43;65.92
34103;BME280;20381;54.498;18.206;2023-06-10T01:29:14;100104.18;;;13.39;66.20
34103;BME280;20381;54.498;18.206;2023-06-10T01:31:54;100100.78;;;13.37;66.45
34103;BME280;20381;54.498;18.206;2023-06-10T01:34:23;100101.31;;;13.35;66.56
34103;BME280;20381;54.498;18.206;2023-06-10T01:36:50;100105.25;;;13.35;66.72
34103;BME280;20381;54.498;18.206;2023-06-10T01:39:19;100105.48;;;13.30;66.60
34103;BME280;20381;54.498;18.206;2023-06-10T01:41:52;100113.45;;;13.29;66.70
34103;BME280;20381;54.498;18.206;2023-06-10T01:44:21;100112.02;;;13.21;66.63
34103;BME280;20381;54.498;18.206;2023-06-10T01:46:48;100114.91;;;13.17;66.69
34103;BME280;20381;54.498;18.206;2023-06-10T01:49:16;100120.15;;;13.17;66.77
34103;BME280;20381;54.498;18.206;2023-06-10T01:51:45;100117.84;;;13.11;66.83
34103;BME280;20381;54.498;18.206;2023-06-10T01:54:12;100122.22;;;13.10;66.89
34103;BME280;20381;54.498;18.206;2023-06-10T01:56:40;100125.00;;;13.07;67.23
34103;BME280;20381;54.498;18.206;2023-06-10T01:59:06;100130.40;;;13.04;67.65
34103;BME280;20381;54.498;18.206;2023-06-10T02:01:33;100135.64;;;13.04;67.23
34103;BME280;20381;54.498;18.206;2023-06-10T02:04:00;100141.98;;;13.00;67.25
34103;BME280;20381;54.498;18.206;2023-06-10T02:06:26;100142.52;;;12.98;67.43
34103;BME280;20381;54.498;18.206;2023-06-10T02:08:54;100149.59;;;12.96;67.73
34103;BME280;20381;54.498;18.206;2023-06-10T02:11:22;100144.36;;;12.96;67.62
34103;BME280;20381;54.498;18.206;2023-06-10T02:13:50;100148.07;;;12.92;67.59
34103;BME280;20381;54.498;18.206;2023-06-10T02:16:18;100149.37;;;12.92;67.83
34103;BME280;20381;54.498;18.206;2023-06-10T02:18:44;100153.16;;;12.86;67.87
34103;BME280;20381;54.498;18.206;2023-06-10T02:21:12;100154.47;;;12.86;68.08
34103;BME280;20381;54.498;18.206;2023-06-10T02:23:42;100158.55;;;12.83;67.58
34103;BME280;20381;54.498;18.206;2023-06-10T02:26:08;100157.23;;;12.74;67.92
34103;BME280;20381;54.498;18.206;2023-06-10T02:28:35;100157.23;;;12.74;67.92
34103;BME280;20381;54.498;18.206;2023-06-10T02:31:03;100158.67;;;12.71;68.27
34103;BME280;20381;54.498;18.206;2023-06-10T02:33:30;100160.60;;;12.68;68.21
34103;BME280;20381;54.498;18.206;2023-06-10T02:35:58;100152.73;;;12.59;68.57
34103;BME280;20381;54.498;18.206;2023-06-10T02:38:25;100152.73;;;12.59;68.57
34103;BME280;20381;54.498;18.206;2023-06-10T02:40:51;100164.14;;;12.58;68.72
34103;BME280;20381;54.498;18.206;2023-06-10T02:43:17;100164.14;;;12.58;68.72
34103;BME280;20381;54.498;18.206;2023-06-10T02:45:45;100160.59;;;12.59;68.55
34103;BME280;20381;54.498;18.206;2023-06-10T02:48:14;100161.38;;;12.61;68.62
34103;BME280;20381;54.498;18.206;2023-06-10T02:50:40;100154.30;;;12.63;68.62
34103;BME280;20381;54.498;18.206;2023-06-10T02:53:06;100160.28;;;12.65;68.59
34103;BME280;20381;54.498;18.206;2023-06-10T02:55:34;100158.45;;;12.67;69.16
34103;BME280;20381;54.498;18.206;2023-06-10T02:58:05;100158.45;;;12.67;69.16
34103;BME280;20381;54.498;18.206;2023-06-10T03:00:34;100166.31;;;12.67;69.12
34103;BME280;20381;54.498;18.206;2023-06-10T03:03:03;100158.39;;;12.69;69.51
34103;BME280;20381;54.498;18.206;2023-06-10T03:05:31;100166.78;;;12.75;69.50
34103;BME280;20381;54.498;18.206;2023-06-10T03:07:57;100154.00;;;12.78;69.48
34103;BME280;20381;54.498;18.206;2023-06-10T03:10:25;100154.00;;;12.78;69.48
34103;BME280;20381;54.498;18.206;2023-06-10T03:12:55;100160.86;;;12.81;69.52
34103;BME280;20381;54.498;18.206;2023-06-10T03:15:23;100147.66;;;12.73;69.63
34103;BME280;20381;54.498;18.206;2023-06-10T03:17:52;100168.79;;;12.88;69.81
34103;BME280;20381;54.498;18.206;2023-06-10T03:20:21;100172.97;;;12.92;69.75
34103;BME280;20381;54.498;18.206;2023-06-10T03:22:47;100174.50;;;12.96;69.69
34103;BME280;20381;54.498;18.206;2023-06-10T03:25:13;100176.06;;;13.00;69.96
34103;BME280;20381;54.498;18.206;2023-06-10T03:27:42;100175.75;;;13.06;70.19
34103;BME280;20381;54.498;18.206;2023-06-10T03:30:12;100170.97;;;13.14;70.21
34103;BME280;20381;54.498;18.206;2023-06-10T03:32:39;100173.27;;;13.20;70.24
34103;BME280;20381;54.498;18.206;2023-06-10T03:35:06;100174.42;;;13.24;70.21
34103;BME280;20381;54.498;18.206;2023-06-10T03:37:32;100166.83;;;13.28;70.12
34103;BME280;20381;54.498;18.206;2023-06-10T03:40:00;100163.11;;;13.32;70.13
34103;BME280;20381;54.498;18.206;2023-06-10T03:42:30;100168.20;;;13.35;70.09
34103;BME280;20381;54.498;18.206;2023-06-10T03:44:58;100161.48;;;13.38;70.02
34103;BME280;20381;54.498;18.206;2023-06-10T03:47:24;100165.09;;;13.44;70.20
34103;BME280;20381;54.498;18.206;2023-06-10T03:49:50;100163.38;;;13.52;70.11
34103;BME280;20381;54.498;18.206;2023-06-10T03:52:18;100165.78;;;13.56;70.06
34103;BME280;20381;54.498;18.206;2023-06-10T03:54:44;100172.00;;;13.62;70.35
34103;BME280;20381;54.498;18.206;2023-06-10T03:57:11;100171.30;;;13.68;70.04
34103;BME280;20381;54.498;18.206;2023-06-10T03:59:39;100170.20;;;13.72;70.11
34103;BME280;20381;54.498;18.206;2023-06-10T04:02:05;100178.14;;;13.79;70.02
34103;BME280;20381;54.498;18.206;2023-06-10T04:04:32;100179.19;;;13.83;70.21
34103;BME280;20381;54.498;18.206;2023-06-10T04:07:00;100178.78;;;13.91;70.05
34103;BME280;20381;54.498;18.206;2023-06-10T04:09:27;100178.08;;;13.96;70.02
34103;BME280;20381;54.498;18.206;2023-06-10T04:12:00;100177.58;;;14.05;70.08
34103;BME280;20381;54.498;18.206;2023-06-10T04:14:25;100175.55;;;14.10;69.97
34103;BME280;20381;54.498;18.206;2023-06-10T04:16:53;100173.16;;;14.15;69.90
34103;BME280;20381;54.498;18.206;2023-06-10T04:19:25;100186.25;;;14.23;70.08
34103;BME280;20381;54.498;18.206;2023-06-10T04:21:51;100184.28;;;14.27;69.74
34103;BME280;20381;54.498;18.206;2023-06-10T04:24:17;100188.28;;;14.34;69.86
34103;BME280;20381;54.498;18.206;2023-06-10T04:26:44;100192.59;;;14.35;69.64
34103;BME280;20381;54.498;18.206;2023-06-10T04:29:10;100191.47;;;14.39;69.71
34103;BME280;20381;54.498;18.206;2023-06-10T04:31:37;100178.94;;;14.44;69.49
34103;BME280;20381;54.498;18.206;2023-06-10T04:34:13;100180.30;;;14.51;69.66
34103;BME280;20381;54.498;18.206;2023-06-10T04:36:40;100182.53;;;14.59;69.53
34103;BME280;20381;54.498;18.206;2023-06-10T04:39:14;100187.92;;;14.72;69.42
34103;BME280;20381;54.498;18.206;2023-06-10T04:41:43;100184.94;;;14.78;69.27
34103;BME280;20381;54.498;18.206;2023-06-10T04:44:09;100191.73;;;14.82;69.13
34103;BME280;20381;54.498;18.206;2023-06-10T04:46:38;100193.45;;;14.90;69.25
34103;BME280;20381;54.498;18.206;2023-06-10T04:49:12;100202.66;;;14.90;68.75
34103;BME280;20381;54.498;18.206;2023-06-10T04:51:36;100204.05;;;14.89;68.89
34103;BME280;20381;54.498;18.206;2023-06-10T04:54:03;100207.73;;;14.93;68.72
34103;BME280;20381;54.498;18.206;2023-06-10T04:56:33;100208.69;;;14.99;68.49
34103;BME280;20381;54.498;18.206;2023-06-10T04:59:00;100205.92;;;15.10;68.34
34103;BME280;20381;54.498;18.206;2023-06-10T05:01:27;100209.28;;;15.12;68.03
34103;BME280;20381;54.498;18.206;2023-06-10T05:03:55;100207.05;;;15.20;67.91
34103;BME280;20381;54.498;18.206;2023-06-10T05:06:21;100210.66;;;15.33;67.83
34103;BME280;20381;54.498;18.206;2023-06-10T05:08:47;100221.58;;;15.41;67.42
34103;BME280;20381;54.498;18.206;2023-06-10T05:11:14;100214.08;;;15.50;67.49
34103;BME280;20381;54.498;18.206;2023-06-10T05:13:42;100221.78;;;15.60;67.31
34103;BME280;20381;54.498;18.206;2023-06-10T05:16:09;100222.59;;;15.69;67.10
34103;BME280;20381;54.498;18.206;2023-06-10T05:18:36;100225.23;;;15.83;66.78
34103;BME280;20381;54.498;18.206;2023-06-10T05:21:05;100228.80;;;15.89;66.31
34103;BME280;20381;54.498;18.206;2023-06-10T05:23:38;100220.72;;;16.00;66.50
34103;BME280;20381;54.498;18.206;2023-06-10T05:26:10;100229.92;;;16.07;65.76
34103;BME280;20381;54.498;18.206;2023-06-10T05:28:38;100226.17;;;16.11;65.08
34103;BME280;20381;54.498;18.206;2023-06-10T05:31:04;100236.71;;;16.11;64.63
34103;BME280;20381;54.498;18.206;2023-06-10T05:33:31;100226.73;;;16.09;65.06
34103;BME280;20381;54.498;18.206;2023-06-10T05:35:59;100223.54;;;16.11;64.39
34103;BME280;20381;54.498;18.206;2023-06-10T05:38:25;100236.48;;;16.21;64.36
34103;BME280;20381;54.498;18.206;2023-06-10T05:40:51;100236.30;;;16.24;64.20
34103;BME280;20381;54.498;18.206;2023-06-10T05:43:17;100239.52;;;16.22;63.96
34103;BME280;20381;54.498;18.206;2023-06-10T05:45:44;100237.45;;;16.27;63.71
34103;BME280;20381;54.498;18.206;2023-06-10T05:48:10;100242.89;;;16.39;63.29
34103;BME280;20381;54.498;18.206;2023-06-10T05:50:36;100241.73;;;16.50;62.55
34103;BME280;20381;54.498;18.206;2023-06-10T05:53:05;100260.72;;;16.62;62.39
34103;BME280;20381;54.498;18.206;2023-06-10T05:55:36;100248.33;;;16.50;61.14
34103;BME280;20381;54.498;18.206;2023-06-10T05:58:02;100252.84;;;16.48;61.43
34103;BME280;20381;54.498;18.206;2023-06-10T06:00:29;100253.96;;;16.58;60.88
34103;BME280;20381;54.498;18.206;2023-06-10T06:02:56;100257.05;;;16.65;61.04
34103;BME280;20381;54.498;18.206;2023-06-10T06:05:23;100248.28;;;16.78;60.89
34103;BME280;20381;54.498;18.206;2023-06-10T06:07:49;100263.34;;;16.76;60.67
34103;BME280;20381;54.498;18.206;2023-06-10T06:10:17;100255.45;;;16.62;60.40
34103;BME280;20381;54.498;18.206;2023-06-10T06:12:43;100261.67;;;16.61;60.26
34103;BME280;20381;54.498;18.206;2023-06-10T06:15:11;100271.27;;;16.62;59.24
34103;BME280;20381;54.498;18.206;2023-06-10T06:17:38;100269.38;;;16.78;59.31
34103;BME280;20381;54.498;18.206;2023-06-10T06:20:06;100258.61;;;16.89;59.42
34103;BME280;20381;54.498;18.206;2023-06-10T06:22:32;100250.87;;;16.86;59.18
34103;BME280;20381;54.498;18.206;2023-06-10T06:24:58;100259.40;;;17.04;59.07
34103;BME280;20381;54.498;18.206;2023-06-10T06:27:25;100268.45;;;17.19;58.86
34103;BME280;20381;54.498;18.206;2023-06-10T06:29:51;100262.31;;;17.26;58.69
34103;BME280;20381;54.498;18.206;2023-06-10T06:32:19;100271.06;;;17.27;58.02
34103;BME280;20381;54.498;18.206;2023-06-10T06:34:46;100281.60;;;17.34;57.59
34103;BME280;20381;54.498;18.206;2023-06-10T06:37:13;100275.70;;;17.43;57.86
34103;BME280;20381;54.498;18.206;2023-06-10T06:39:39;100280.20;;;17.48;56.54
34103;BME280;20381;54.498;18.206;2023-06-10T06:42:11;100276.57;;;17.69;57.15
34103;BME280;20381;54.498;18.206;2023-06-10T06:44:34;100274.94;;;18.06;57.25
34103;BME280;20381;54.498;18.206;2023-06-10T06:47:01;100296.55;;;17.93;56.04
34103;BME280;20381;54.498;18.206;2023-06-10T06:49:29;100280.89;;;18.16;56.89
34103;BME280;20381;54.498;18.206;2023-06-10T06:51:58;100289.00;;;18.56;56.44
34103;BME280;20381;54.498;18.206;2023-06-10T06:54:24;100294.28;;;18.56;55.66
34103;BME280;20381;54.498;18.206;2023-06-10T06:56:50;100313.70;;;18.63;55.54
34103;BME280;20381;54.498;18.206;2023-06-10T06:59:17;100305.39;;;18.62;54.72
34103;BME280;20381;54.498;18.206;2023-06-10T07:01:45;100301.45;;;18.67;54.88
34103;BME280;20381;54.498;18.206;2023-06-10T07:04:14;100305.10;;;19.09;54.35
34103;BME280;20381;54.498;18.206;2023-06-10T07:06:43;100304.19;;;19.21;52.18
34103;BME280;20381;54.498;18.206;2023-06-10T07:09:10;100331.05;;;19.22;52.76
34103;BME280;20381;54.498;18.206;2023-06-10T07:11:36;100304.45;;;19.59;52.85
34103;BME280;20381;54.498;18.206;2023-06-10T07:14:03;100322.59;;;19.76;51.49
34103;BME280;20381;54.498;18.206;2023-06-10T07:16:30;100324.72;;;20.18;51.54
34103;BME280;20381;54.498;18.206;2023-06-10T07:18:56;100328.80;;;20.84;50.36
34103;BME280;20381;54.498;18.206;2023-06-10T07:21:22;100323.41;;;21.23;50.46
34103;BME280;20381;54.498;18.206;2023-06-10T07:23:49;100356.69;;;21.38;48.06
34103;BME280;20381;54.498;18.206;2023-06-10T07:26:17;100334.76;;;21.57;48.08
34103;BME280;20381;54.498;18.206;2023-06-10T07:28:43;100344.28;;;22.23;46.48
34103;BME280;20381;54.498;18.206;2023-06-10T07:31:10;100328.79;;;23.28;46.24
34103;BME280;20381;54.498;18.206;2023-06-10T07:33:38;100297.52;;;24.16;48.18
34103;BME280;20381;54.498;18.206;2023-06-10T07:36:07;100325.59;;;24.20;46.73
34103;BME280;20381;54.498;18.206;2023-06-10T07:38:36;100339.80;;;24.34;46.34
34103;BME280;20381;54.498;18.206;2023-06-10T07:41:04;100328.97;;;24.46;45.96
34103;BME280;20381;54.498;18.206;2023-06-10T07:43:31;100344.26;;;24.53;44.04
34103;BME280;20381;54.498;18.206;2023-06-10T07:45:57;100341.49;;;24.59;43.89
34103;BME280;20381;54.498;18.206;2023-06-10T07:48:23;100338.02;;;24.63;41.69
34103;BME280;20381;54.498;18.206;2023-06-10T07:50:50;100334.22;;;25.25;40.97
34103;BME280;20381;54.498;18.206;2023-06-10T07:53:18;100338.59;;;25.65;41.92
34103;BME280;20381;54.498;18.206;2023-06-10T07:55:44;100339.33;;;25.36;40.25
34103;BME280;20381;54.498;18.206;2023-06-10T07:58:10;100342.00;;;25.04;39.72
34103;BME280;20381;54.498;18.206;2023-06-10T08:00:43;100342.00;;;25.04;39.72
34103;BME280;20381;54.498;18.206;2023-06-10T08:03:08;100344.88;;;25.07;38.95
34103;BME280;20381;54.498;18.206;2023-06-10T08:05:35;100341.09;;;25.85;37.99
34103;BME280;20381;54.498;18.206;2023-06-10T08:08:02;100340.22;;;26.63;37.73
34103;BME280;20381;54.498;18.206;2023-06-10T08:10:29;100331.21;;;27.35;37.31
34103;BME280;20381;54.498;18.206;2023-06-10T08:12:55;100345.47;;;27.88;36.33
34103;BME280;20381;54.498;18.206;2023-06-10T08:15:21;100336.09;;;27.39;36.49
34103;BME280;20381;54.498;18.206;2023-06-10T08:17:48;100338.77;;;27.52;36.43
34103;BME280;20381;54.498;18.206;2023-06-10T08:20:15;100342.36;;;28.28;34.89
34103;BME280;20381;54.498;18.206;2023-06-10T08:22:42;100335.92;;;28.58;35.03
34103;BME280;20381;54.498;18.206;2023-06-10T08:25:13;100337.70;;;28.70;34.75
34103;BME280;20381;54.498;18.206;2023-06-10T08:27:36;100344.86;;;28.86;32.19
34103;BME280;20381;54.498;18.206;2023-06-10T08:30:06;100331.69;;;28.99;33.94
34103;BME280;20381;54.498;18.206;2023-06-10T08:32:34;100336.64;;;29.18;33.84
34103;BME280;20381;54.498;18.206;2023-06-10T08:35:02;100333.84;;;29.31;33.71
34103;BME280;20381;54.498;18.206;2023-06-10T08:37:29;100353.92;;;30.19;32.86
34103;BME280;20381;54.498;18.206;2023-06-10T08:39:58;100340.83;;;29.40;31.91
34103;BME280;20381;54.498;18.206;2023-06-10T08:42:33;100338.62;;;29.20;31.08
34103;BME280;20381;54.498;18.206;2023-06-10T08:45:03;100341.04;;;29.11;30.95
34103;BME280;20381;54.498;18.206;2023-06-10T08:47:33;100332.61;;;29.14;30.46
34103;BME280;20381;54.498;18.206;2023-06-10T08:50:04;100338.03;;;29.10;29.52
34103;BME280;20381;54.498;18.206;2023-06-10T08:52:39;100348.45;;;28.14;28.97
34103;BME280;20381;54.498;18.206;2023-06-10T08:55:23;100343.41;;;28.23;29.34
34103;BME280;20381;54.498;18.206;2023-06-10T08:57:55;100333.88;;;28.64;29.15
34103;BME280;20381;54.498;18.206;2023-06-10T09:00:22;100340.52;;;28.33;27.99
34103;BME280;20381;54.498;18.206;2023-06-10T09:02:50;100342.27;;;27.97;27.84
34103;BME280;20381;54.498;18.206;2023-06-10T09:05:17;100347.81;;;27.55;27.92
34103;BME280;20381;54.498;18.206;2023-06-10T09:07:52;100357.36;;;27.78;27.52
34103;BME280;20381;54.498;18.206;2023-06-10T09:10:20;100345.78;;;27.32;27.25
34103;BME280;20381;54.498;18.206;2023-06-10T09:12:48;100349.81;;;27.40;27.40
34103;BME280;20381;54.498;18.206;2023-06-10T09:15:15;100343.62;;;28.01;27.31
34103;BME280;20381;54.498;18.206;2023-06-10T09:17:43;100331.63;;;28.32;27.33
34103;BME280;20381;54.498;18.206;2023-06-10T09:20:14;100329.17;;;28.62;27.28
34103;BME280;20381;54.498;18.206;2023-06-10T09:22:42;100344.04;;;28.46;27.41
34103;BME280;20381;54.498;18.206;2023-06-10T09:25:14;100335.37;;;28.98;26.95
34103;BME280;20381;54.498;18.206;2023-06-10T09:27:46;100345.70;;;28.47;26.21
34103;BME280;20381;54.498;18.206;2023-06-10T09:30:31;100355.10;;;28.43;26.20
34103;BME280;20381;54.498;18.206;2023-06-10T09:33:09;100339.39;;;29.02;26.65
34103;BME280;20381;54.498;18.206;2023-06-10T09:35:33;100329.60;;;28.82;26.51
34103;BME280;20381;54.498;18.206;2023-06-10T09:38:00;100347.09;;;29.13;27.13
34103;BME280;20381;54.498;18.206;2023-06-10T09:40:33;100362.95;;;29.50;26.45
34103;BME280;20381;54.498;18.206;2023-06-10T09:43:17;100360.22;;;29.54;25.92
34103;BME280;20381;54.498;18.206;2023-06-10T09:45:41;100345.95;;;29.31;26.13
34103;BME280;20381;54.498;18.206;2023-06-10T09:48:10;100356.62;;;30.04;26.36
34103;BME280;20381;54.498;18.206;2023-06-10T09:50:45;100357.45;;;30.04;25.68
34103;BME280;20381;54.498;18.206;2023-06-10T09:53:16;100355.88;;;29.49;25.67
34103;BME280;20381;54.498;18.206;2023-06-10T09:55:44;100355.92;;;28.91;25.41
34103;BME280;20381;54.498;18.206;2023-06-10T09:58:11;100358.30;;;28.86;25.76
34103;BME280;20381;54.498;18.206;2023-06-10T10:00:41;100351.84;;;28.99;25.70
34103;BME280;20381;54.498;18.206;2023-06-10T10:03:07;100354.83;;;29.58;25.91
34103;BME280;20381;54.498;18.206;2023-06-10T10:05:34;100350.80;;;30.30;26.20
34103;BME280;20381;54.498;18.206;2023-06-10T10:08:01;100331.55;;;31.25;26.10
34103;BME280;20381;54.498;18.206;2023-06-10T10:10:27;100345.42;;;31.32;25.06
34103;BME280;20381;54.498;18.206;2023-06-10T10:12:55;100348.87;;;31.05;25.28
34103;BME280;20381;54.498;18.206;2023-06-10T10:15:25;100348.73;;;31.02;25.11
34103;BME280;20381;54.498;18.206;2023-06-10T10:18:05;100350.42;;;30.63;25.24
34103;BME280;20381;54.498;18.206;2023-06-10T10:20:33;100354.46;;;29.99;25.16
34103;BME280;20381;54.498;18.206;2023-06-10T10:23:02;100352.06;;;30.38;25.08
34103;BME280;20381;54.498;18.206;2023-06-10T10:25:38;100373.95;;;30.20;24.92
34103;BME280;20381;54.498;18.206;2023-06-10T10:28:12;100347.54;;;30.20;25.41
34103;BME280;20381;54.498;18.206;2023-06-10T10:30:46;100360.72;;;30.74;25.69
34103;BME280;20381;54.498;18.206;2023-06-10T10:35:58;100357.15;;;30.92;24.73
34103;BME280;20381;54.498;18.206;2023-06-10T10:38:25;100349.25;;;30.76;24.74
34103;BME280;20381;54.498;18.206;2023-06-10T10:40:52;100353.66;;;30.47;24.87
34103;BME280;20381;54.498;18.206;2023-06-10T10:43:22;100360.89;;;30.62;25.15
34103;BME280;20381;54.498;18.206;2023-06-10T10:46:00;100360.15;;;30.23;24.71
34103;BME280;20381;54.498;18.206;2023-06-10T10:48:32;100354.89;;;29.92;25.23
34103;BME280;20381;54.498;18.206;2023-06-10T10:50:57;100351.94;;;30.61;24.98
34103;BME280;20381;54.498;18.206;2023-06-10T10:53:27;100363.73;;;30.35;25.01
34103;BME280;20381;54.498;18.206;2023-06-10T10:56:07;100360.66;;;30.23;24.83
34103;BME280;20381;54.498;18.206;2023-06-10T10:58:36;100366.98;;;30.45;25.07
34103;BME280;20381;54.498;18.206;2023-06-10T11:01:12;100359.08;;;28.63;24.32
34103;BME280;20381;54.498;18.206;2023-06-10T11:03:44;100359.70;;;28.18;24.85
34103;BME280;20381;54.498;18.206;2023-06-10T11:06:14;100361.91;;;27.65;25.28
34103;BME280;20381;54.498;18.206;2023-06-10T11:08:46;100367.62;;;27.82;25.30
34103;BME280;20381;54.498;18.206;2023-06-10T11:11:29;100377.64;;;27.64;26.00
34103;BME280;20381;54.498;18.206;2023-06-10T11:16:43;100368.97;;;26.99;26.03
34103;BME280;20381;54.498;18.206;2023-06-10T11:19:31;100349.83;;;26.77;26.48
34103;BME280;20381;54.498;18.206;2023-06-10T11:22:00;100384.37;;;26.28;25.90
34103;BME280;20381;54.498;18.206;2023-06-10T11:24:34;100375.72;;;25.68;26.75
34103;BME280;20381;54.498;18.206;2023-06-10T11:27:25;100383.62;;;25.92;26.92
34103;BME280;20381;54.498;18.206;2023-06-10T11:32:36;100375.77;;;25.09;26.99
34103;BME280;20381;54.498;18.206;2023-06-10T11:35:03;100377.16;;;25.45;27.88
34103;BME280;20381;54.498;18.206;2023-06-10T11:37:35;100376.81;;;25.80;27.53
34103;BME280;20381;54.498;18.206;2023-06-10T11:40:10;100384.00;;;25.97;27.49
34103;BME280;20381;54.498;18.206;2023-06-10T11:42:42;100378.63;;;25.57;27.42
34103;BME280;20381;54.498;18.206;2023-06-10T11:45:14;100356.73;;;25.58;27.81
34103;BME280;20381;54.498;18.206;2023-06-10T11:48:00;100369.05;;;25.05;27.84
34103;BME280;20381;54.498;18.206;2023-06-10T11:50:32;100373.10;;;24.95;28.80
34103;BME280;20381;54.498;18.206;2023-06-10T11:53:03;100365.48;;;25.00;28.52
34103;BME280;20381;54.498;18.206;2023-06-10T11:55:45;100376.74;;;24.76;28.50
34103;BME280;20381;54.498;18.206;2023-06-10T11:58:24;100376.36;;;23.81;28.81
34103;BME280;20381;54.498;18.206;2023-06-10T12:00:52;100367.38;;;22.93;29.23
34103;BME280;20381;54.498;18.206;2023-06-10T12:03:20;100362.91;;;22.17;29.83
34103;BME280;20381;54.498;18.206;2023-06-10T12:06:00;100371.59;;;21.83;30.26
34103;BME280;20381;54.498;18.206;2023-06-10T12:08:30;100370.04;;;21.48;30.98
34103;BME280;20381;54.498;18.206;2023-06-10T12:10:57;100382.16;;;21.30;30.93
34103;BME280;20381;54.498;18.206;2023-06-10T12:16:09;100376.94;;;20.51;31.65
34103;BME280;20381;54.498;18.206;2023-06-10T12:18:43;100367.00;;;20.19;32.19
34103;BME280;20381;54.498;18.206;2023-06-10T12:21:23;100398.05;;;19.89;32.23
34103;BME280;20381;54.498;18.206;2023-06-10T12:24:04;100397.30;;;19.63;32.84
34103;BME280;20381;54.498;18.206;2023-06-10T12:26:41;100389.41;;;19.44;33.35
34103;BME280;20381;54.498;18.206;2023-06-10T12:29:23;100386.77;;;19.26;33.62
34103;BME280;20381;54.498;18.206;2023-06-10T12:32:02;100391.27;;;18.94;33.68
34103;BME280;20381;54.498;18.206;2023-06-10T12:34:33;100393.84;;;18.83;34.26
34103;BME280;20381;54.498;18.206;2023-06-10T12:37:11;100407.91;;;18.71;34.73
34103;BME280;20381;54.498;18.206;2023-06-10T12:39:41;100402.71;;;18.56;35.24
34103;BME280;20381;54.498;18.206;2023-06-10T12:42:12;100404.33;;;18.46;36.67
34103;BME280;20381;54.498;18.206;2023-06-10T12:44:39;100394.47;;;18.48;35.86
34103;BME280;20381;54.498;18.206;2023-06-10T12:47:11;100384.97;;;18.33;36.08
34103;BME280;20381;54.498;18.206;2023-06-10T12:49:40;100390.68;;;18.27;36.35
34103;BME280;20381;54.498;18.206;2023-06-10T12:52:11;100386.03;;;18.18;36.91
34103;BME280;20381;54.498;18.206;2023-06-10T12:54:37;100384.12;;;18.07;36.96
34103;BME280;20381;54.498;18.206;2023-06-10T12:57:04;100385.98;;;17.92;37.04
34103;BME280;20381;54.498;18.206;2023-06-10T12:59:30;100394.55;;;17.76;37.45
34103;BME280;20381;54.498;18.206;2023-06-10T13:02:00;100382.27;;;17.75;37.95